createdAt,value
2018-05-16T00:00:28.321Z,6.53
2018-05-16T00:03:03.669Z,5.30
2018-05-16T00:05:38.903Z,6.03
2018-05-16T00:08:14.166Z,5.10
2018-05-16T00:10:49.300Z,5.73
2018-05-16T00:13:25.384Z,7.30
2018-05-16T00:16:01.296Z,6.60
2018-05-16T00:18:37.159Z,5.80
2018-05-16T00:21:13.089Z,7.50
2018-05-16T00:23:48.984Z,7.07
2018-05-16T00:26:25.001Z,7.70
2018-05-16T00:29:00.172Z,6.97
2018-05-16T00:31:35.306Z,6.53
2018-05-16T00:34:10.477Z,6.33
2018-05-16T00:36:45.629Z,5.70
2018-05-16T00:39:21.539Z,8.00
2018-05-16T00:41:57.490Z,6.27
2018-05-16T00:44:32.621Z,5.27
2018-05-16T00:47:07.882Z,5.93
2018-05-16T00:49:43.829Z,5.57
2018-05-16T00:52:18.997Z,5.70
2018-05-16T00:54:54.136Z,5.07
2018-05-16T00:57:30.021Z,5.50
2018-05-16T01:00:06.002Z,6.93
2018-05-16T01:02:41.243Z,5.07
2018-05-16T01:05:17.271Z,5.60
2018-05-16T01:07:53.252Z,8.07
2018-05-16T01:10:28.491Z,5.13
2018-05-16T01:13:03.629Z,5.43
2018-05-16T01:15:39.615Z,4.97
2018-05-16T01:18:14.918Z,5.80
2018-05-16T01:20:50.905Z,5.27
2018-05-16T01:23:26.007Z,5.47
2018-05-16T01:26:01.324Z,5.40
2018-05-16T01:28:36.569Z,6.27
2018-05-16T01:31:12.456Z,5.63
2018-05-16T01:33:48.549Z,8.00
2018-05-16T01:36:24.781Z,6.23
2018-05-16T01:39:00.010Z,6.03
2018-05-16T01:41:35.381Z,8.13
2018-05-16T01:44:10.505Z,5.90
2018-05-16T01:46:45.823Z,7.33
2018-05-16T01:49:21.865Z,5.10
2018-05-16T01:51:57.046Z,7.23
2018-05-16T01:54:32.162Z,8.53
2018-05-16T01:57:08.124Z,5.00
2018-05-16T01:59:43.305Z,5.53
2018-05-16T02:02:18.476Z,5.50
2018-05-16T02:04:53.628Z,8.63
2018-05-16T02:07:29.591Z,11.03
2018-05-16T02:10:04.830Z,6.13
2018-05-16T02:12:40.013Z,6.63
2018-05-16T02:15:15.942Z,6.77
2018-05-16T02:17:51.038Z,5.53
2018-05-16T02:20:26.200Z,8.83
2018-05-16T02:23:01.533Z,6.20
2018-05-16T02:25:36.882Z,7.73
2018-05-16T02:28:12.099Z,5.33
2018-05-16T02:30:47.232Z,6.50
2018-05-16T02:33:22.348Z,7.30
2018-05-16T02:35:57.629Z,5.80
2018-05-16T02:38:32.768Z,6.40
2018-05-16T02:41:07.986Z,6.90
2018-05-16T02:43:43.228Z,6.17
2018-05-16T02:46:18.487Z,7.47
2018-05-16T02:48:53.708Z,7.53
2018-05-16T02:51:28.925Z,6.07
2018-05-16T02:54:04.061Z,4.97
2018-05-16T02:56:39.979Z,5.80
2018-05-16T02:59:15.130Z,6.93
2018-05-16T03:01:50.277Z,7.63
2018-05-16T03:04:25.464Z,5.67
2018-05-16T03:07:00.703Z,4.97
2018-05-16T03:09:36.613Z,7.47
2018-05-16T03:12:11.808Z,5.40
2018-05-16T03:14:47.696Z,7.83
2018-05-16T03:17:22.833Z,5.77
2018-05-16T03:19:58.169Z,4.40
2018-05-16T03:22:33.411Z,6.37
2018-05-16T03:25:08.574Z,5.07
2018-05-16T03:27:43.732Z,5.70
2018-05-16T03:30:19.913Z,6.67
2018-05-16T03:32:55.081Z,7.27
2018-05-16T03:35:31.030Z,5.60
2018-05-16T03:38:06.170Z,6.00
2018-05-16T03:40:41.315Z,5.30
2018-05-16T03:43:16.455Z,4.90
2018-05-16T03:45:52.418Z,5.07
2018-05-16T03:48:28.354Z,6.10
2018-05-16T03:51:03.488Z,4.70
2018-05-16T03:53:39.440Z,4.93
2018-05-16T03:56:15.399Z,5.53
2018-05-16T03:59:08.320Z,5.90
2018-05-16T04:02:02.131Z,5.47
2018-05-16T04:04:37.390Z,5.10
2018-05-16T04:07:12.553Z,8.53
2018-05-16T04:09:47.874Z,5.67
2018-05-16T04:12:23.056Z,5.90
2018-05-16T04:14:58.179Z,6.00
2018-05-16T04:17:33.411Z,5.87
2018-05-16T04:20:09.378Z,5.43
2018-05-16T04:22:44.473Z,5.60
2018-05-16T04:25:19.677Z,7.60
2018-05-16T04:27:54.834Z,4.80
2018-05-16T04:30:30.085Z,5.67
2018-05-16T04:33:05.951Z,6.20
2018-05-16T04:35:41.183Z,5.53
2018-05-16T04:38:16.228Z,6.03
2018-05-16T04:40:51.565Z,7.33
2018-05-16T04:43:27.484Z,6.60
2018-05-16T04:46:02.609Z,7.73
2018-05-16T04:48:37.765Z,6.63
2018-05-16T04:51:12.851Z,9.90
2018-05-16T04:53:48.063Z,6.67
2018-05-16T04:56:23.345Z,8.40
2018-05-16T04:58:58.528Z,6.80
2018-05-16T05:01:33.809Z,5.60
2018-05-16T05:04:09.074Z,6.33
2018-05-16T05:06:44.276Z,5.63
2018-05-16T05:09:19.601Z,6.63
2018-05-16T05:11:55.037Z,8.47
2018-05-16T05:14:30.294Z,5.17
2018-05-16T05:17:05.506Z,5.80
2018-05-16T05:19:41.489Z,5.70
2018-05-16T05:22:17.364Z,7.83
2018-05-16T05:24:53.247Z,6.07
2018-05-16T05:27:29.207Z,9.73
2018-05-16T05:30:04.296Z,6.70
2018-05-16T05:32:39.499Z,6.30
2018-05-16T05:35:15.469Z,7.00
2018-05-16T05:37:50.648Z,7.77
2018-05-16T05:40:25.861Z,6.37
2018-05-16T05:43:01.088Z,7.07
2018-05-16T05:45:36.193Z,8.73
2018-05-16T05:48:11.505Z,8.17
2018-05-16T05:50:47.587Z,6.37
2018-05-16T05:53:22.816Z,6.30
2018-05-16T05:55:57.939Z,5.13
2018-05-16T05:58:33.177Z,6.60
2018-05-16T06:01:08.393Z,5.83
2018-05-16T06:03:43.658Z,7.17
2018-05-16T06:06:18.798Z,7.20
2018-05-16T06:08:53.958Z,6.57
2018-05-16T06:11:29.135Z,5.73
2018-05-16T06:14:04.404Z,5.13
2018-05-16T06:16:39.716Z,9.07
2018-05-16T06:19:14.964Z,6.87
2018-05-16T06:21:50.205Z,5.33
2018-05-16T06:24:25.448Z,5.57
2018-05-16T06:27:00.747Z,4.40
2018-05-16T06:29:36.678Z,5.90
2018-05-16T06:32:11.901Z,4.37
2018-05-16T06:34:47.238Z,5.63
2018-05-16T06:37:22.589Z,5.83
2018-05-16T06:39:58.001Z,7.37
2018-05-16T06:42:33.139Z,6.63
2018-05-16T06:45:09.023Z,6.90
2018-05-16T06:47:44.878Z,5.10
2018-05-16T06:50:20.829Z,4.63
2018-05-16T06:52:56.025Z,6.00
2018-05-16T06:55:31.309Z,4.53
2018-05-16T06:58:06.656Z,5.13
2018-05-16T07:00:42.003Z,4.40
2018-05-16T07:03:17.042Z,4.10
2018-05-16T07:05:52.114Z,4.50
2018-05-16T07:08:27.457Z,4.57
2018-05-16T07:11:02.747Z,3.90
2018-05-16T07:13:38.074Z,4.03
2018-05-16T07:16:13.097Z,4.13
2018-05-16T07:18:48.393Z,4.27
2018-05-16T07:21:23.520Z,4.00
2018-05-16T07:23:58.635Z,4.33
2018-05-16T07:26:33.748Z,4.00
2018-05-16T07:29:09.005Z,4.20
2018-05-16T07:31:44.268Z,3.47
2018-05-16T07:34:19.528Z,4.50
2018-05-16T07:36:55.543Z,4.17
2018-05-16T07:39:31.413Z,4.60
2018-05-16T07:42:06.737Z,4.10
2018-05-16T07:44:41.896Z,4.00
2018-05-16T07:47:17.052Z,4.67
2018-05-16T07:49:52.293Z,4.20
2018-05-16T07:52:27.589Z,5.13
2018-05-16T07:55:02.648Z,3.87
2018-05-16T07:57:38.703Z,5.37
2018-05-16T08:00:13.827Z,4.73
2018-05-16T08:02:49.681Z,4.50
2018-05-16T08:05:25.724Z,5.83
2018-05-16T08:08:00.969Z,4.47
2018-05-16T08:10:36.276Z,4.50
2018-05-16T08:13:11.393Z,4.30
2018-05-16T08:15:47.361Z,4.03
2018-05-16T08:18:22.608Z,4.43
2018-05-16T08:20:57.845Z,5.23
2018-05-16T08:23:33.758Z,5.27
2018-05-16T08:26:09.630Z,4.43
2018-05-16T08:28:45.557Z,6.10
2018-05-16T08:31:21.520Z,5.30
2018-05-16T08:33:56.659Z,4.30
2018-05-16T08:36:31.916Z,4.47
2018-05-16T08:39:07.976Z,4.83
2018-05-16T08:41:43.067Z,4.60
2018-05-16T08:44:18.419Z,4.27
2018-05-16T08:46:53.578Z,3.80
2018-05-16T08:49:28.869Z,4.90
2018-05-16T08:52:03.953Z,4.10
2018-05-16T08:54:39.168Z,5.10
2018-05-16T08:57:14.419Z,4.97
2018-05-16T08:59:49.734Z,4.60
2018-05-16T09:02:25.625Z,4.50
2018-05-16T09:05:00.780Z,3.60
2018-05-16T09:07:36.025Z,3.70
2018-05-16T09:10:11.984Z,3.70
2018-05-16T09:12:47.195Z,4.70
2018-05-16T09:15:22.538Z,5.50
2018-05-16T09:17:57.813Z,4.43
2018-05-16T09:20:33.082Z,3.90
2018-05-16T09:23:09.080Z,4.20
2018-05-16T09:25:44.271Z,3.90
2018-05-16T09:28:19.684Z,7.20
2018-05-16T09:30:54.897Z,3.77
2018-05-16T09:33:30.204Z,4.03
2018-05-16T09:36:05.510Z,4.17
2018-05-16T09:38:40.640Z,3.90
2018-05-16T09:41:15.829Z,4.40
2018-05-16T09:43:51.744Z,4.40
2018-05-16T09:46:27.789Z,4.50
2018-05-16T09:49:03.075Z,7.00
2018-05-16T09:51:38.993Z,4.50
2018-05-16T09:54:14.181Z,4.17
2018-05-16T09:56:49.465Z,5.00
2018-05-16T09:59:24.855Z,4.70
2018-05-16T10:02:00.170Z,4.00
2018-05-16T10:04:35.475Z,4.30
2018-05-16T10:07:11.551Z,3.23
2018-05-16T10:09:46.805Z,3.97
2018-05-16T10:12:22.006Z,4.00
2018-05-16T10:14:57.359Z,5.67
2018-05-16T10:17:32.536Z,5.10
2018-05-16T10:20:07.819Z,5.80
2018-05-16T10:22:43.025Z,4.20
2018-05-16T10:25:18.244Z,4.87
2018-05-16T10:27:53.495Z,4.83
2018-05-16T10:30:28.613Z,5.50
2018-05-16T10:33:03.881Z,4.50
2018-05-16T10:35:39.188Z,4.50
2018-05-16T10:38:14.303Z,4.33
2018-05-16T10:40:49.526Z,4.50
2018-05-16T10:43:24.843Z,6.73
2018-05-16T10:45:59.920Z,5.87
2018-05-16T10:48:35.160Z,4.93
2018-05-16T10:51:10.429Z,4.20
2018-05-16T10:53:46.330Z,3.53
2018-05-16T10:56:21.522Z,4.37
2018-05-16T10:58:56.715Z,4.70
2018-05-16T11:01:32.615Z,4.47
2018-05-16T11:04:07.784Z,5.43
2018-05-16T11:06:43.786Z,5.10
2018-05-16T11:09:19.733Z,4.60
2018-05-16T11:11:54.896Z,3.80
2018-05-16T11:14:30.869Z,5.47
2018-05-16T11:17:06.808Z,4.27
2018-05-16T11:19:41.938Z,4.40
2018-05-16T11:22:17.151Z,3.93
2018-05-16T11:24:52.287Z,4.27
2018-05-16T11:27:28.408Z,5.20
2018-05-16T11:30:03.671Z,5.60
2018-05-16T11:32:38.933Z,4.60
2018-05-16T11:35:14.086Z,3.90
2018-05-16T11:37:49.245Z,4.37
2018-05-16T11:40:24.533Z,4.50
2018-05-16T11:42:59.836Z,4.43
2018-05-16T11:45:35.725Z,4.20
2018-05-16T11:48:10.985Z,3.87
2018-05-16T11:50:46.163Z,3.80
2018-05-16T11:53:22.106Z,3.47
2018-05-16T11:55:57.212Z,3.70
2018-05-16T11:58:32.642Z,4.23
2018-05-16T12:01:07.839Z,3.40
2018-05-16T12:03:43.082Z,3.03
2018-05-16T12:06:18.245Z,3.53
2018-05-16T12:08:53.362Z,3.90
2018-05-16T12:11:29.296Z,4.90
2018-05-16T12:14:04.371Z,4.70
2018-05-16T12:16:40.278Z,4.40
2018-05-16T12:19:15.469Z,4.47
2018-05-16T12:21:51.340Z,3.63
2018-05-16T12:24:26.651Z,4.13
2018-05-16T12:27:02.713Z,4.17
2018-05-16T12:29:37.892Z,5.13
2018-05-16T12:32:13.066Z,4.57
2018-05-16T12:34:48.161Z,4.20
2018-05-16T12:37:23.532Z,3.40
2018-05-16T12:39:58.626Z,3.43
2018-05-16T12:42:34.002Z,3.53
2018-05-16T12:45:09.248Z,3.63
2018-05-16T12:47:44.366Z,3.27
2018-05-16T12:50:19.539Z,3.10
2018-05-16T12:52:55.508Z,3.50
2018-05-16T12:55:30.781Z,3.70
2018-05-16T12:58:06.069Z,5.13
2018-05-16T13:00:41.397Z,3.87
2018-05-16T13:03:16.672Z,7.40
2018-05-16T13:05:52.062Z,3.87
2018-05-16T13:08:27.248Z,4.40
2018-05-16T13:11:03.281Z,3.60
2018-05-16T13:13:38.545Z,4.07
2018-05-16T13:16:13.820Z,3.47
2018-05-16T13:18:49.089Z,4.00
2018-05-16T13:21:24.436Z,4.60
2018-05-16T13:23:59.690Z,6.47
2018-05-16T13:26:35.000Z,4.93
2018-05-16T13:29:10.861Z,5.67
2018-05-16T13:31:46.860Z,3.60
2018-05-16T13:34:22.115Z,4.00
2018-05-16T13:36:58.211Z,3.87
2018-05-16T13:39:33.502Z,4.60
2018-05-16T13:42:09.403Z,4.00
2018-05-16T13:44:44.524Z,4.60
2018-05-16T13:47:20.462Z,4.43
2018-05-16T13:49:56.397Z,3.50
2018-05-16T13:52:31.579Z,3.67
2018-05-16T13:55:07.690Z,4.10
2018-05-16T13:57:42.876Z,4.07
2018-05-16T14:00:18.174Z,10.77
2018-05-16T14:02:53.471Z,8.40
2018-05-16T14:05:28.840Z,5.30
2018-05-16T14:08:04.044Z,5.17
2018-05-16T14:10:39.284Z,7.20
2018-05-16T14:13:15.352Z,6.17
2018-05-16T14:15:50.612Z,5.13
2018-05-16T14:18:26.471Z,7.37
2018-05-16T14:21:01.631Z,5.37
2018-05-16T14:23:36.833Z,6.27
2018-05-16T14:26:12.081Z,7.40
2018-05-16T14:28:48.117Z,8.77
2018-05-16T14:31:23.218Z,6.40
2018-05-16T14:33:59.233Z,6.57
2018-05-16T14:36:34.365Z,6.37
2018-05-16T14:39:09.550Z,6.70
2018-05-16T14:41:44.690Z,6.57
2018-05-16T14:44:19.850Z,8.77
2018-05-16T14:46:55.036Z,5.87
2018-05-16T14:49:30.154Z,9.93
2018-05-16T14:52:06.111Z,6.70
2018-05-16T14:54:41.319Z,10.10
2018-05-16T14:57:16.541Z,6.67
2018-05-16T14:59:51.955Z,7.50
2018-05-16T15:02:27.308Z,6.17
2018-05-16T15:05:02.546Z,8.00
2018-05-16T15:07:37.684Z,10.07
2018-05-16T15:10:13.616Z,6.00
2018-05-16T15:12:48.747Z,4.87
2018-05-16T15:15:23.915Z,5.13
2018-05-16T15:17:59.164Z,5.63
2018-05-16T15:20:34.432Z,6.90
2018-05-16T15:23:09.859Z,6.73
2018-05-16T15:25:45.115Z,5.73
2018-05-16T15:28:20.369Z,4.97
2018-05-16T15:30:56.468Z,6.33
2018-05-16T15:33:31.767Z,5.43
2018-05-16T15:36:08.076Z,5.37
2018-05-16T15:38:44.085Z,4.83
2018-05-16T15:41:19.953Z,5.07
2018-05-16T15:43:55.272Z,7.37
2018-05-16T15:46:31.290Z,4.73
2018-05-16T15:49:07.305Z,4.87
2018-05-16T15:51:42.469Z,3.87
2018-05-16T15:54:17.740Z,3.90
2018-05-16T15:56:53.833Z,3.90
2018-05-16T15:59:28.978Z,2.90
2018-05-16T16:02:04.173Z,5.10
2018-05-16T16:04:39.355Z,3.30
2018-05-16T16:07:14.574Z,3.20
2018-05-16T16:09:49.860Z,3.20
2018-05-16T16:12:25.108Z,3.50
2018-05-16T16:15:00.235Z,3.33
2018-05-16T16:17:36.410Z,3.00
2018-05-16T16:20:11.536Z,3.43
2018-05-16T16:22:46.870Z,2.93
2018-05-16T16:25:22.201Z,4.10
2018-05-16T16:27:57.500Z,2.70
2018-05-16T16:30:32.746Z,3.73
2018-05-16T16:33:08.016Z,3.87
2018-05-16T16:35:43.273Z,3.40
2018-05-16T16:38:18.570Z,3.80
2018-05-16T16:40:53.642Z,3.33
2018-05-16T16:43:29.425Z,3.00
2018-05-16T16:46:05.344Z,3.60
2018-05-16T16:48:40.477Z,4.20
2018-05-16T16:51:15.689Z,3.80
2018-05-16T16:53:51.690Z,3.83
2018-05-16T16:56:27.661Z,3.80
2018-05-16T16:59:02.984Z,5.10
2018-05-16T17:01:38.242Z,3.40
2018-05-16T17:04:16.175Z,3.73
2018-05-16T17:06:51.260Z,4.30
2018-05-16T17:09:26.502Z,4.27
2018-05-16T17:12:01.583Z,4.13
2018-05-16T17:14:36.857Z,3.80
2018-05-16T17:17:12.193Z,5.50
2018-05-16T17:19:47.910Z,4.20
2018-05-16T17:22:23.201Z,5.10
2018-05-16T17:24:58.518Z,4.20
2018-05-16T17:27:34.947Z,6.30
2018-05-16T17:30:10.929Z,4.57
2018-05-16T17:32:46.189Z,5.10
2018-05-16T17:35:22.148Z,5.00
2018-05-16T17:37:57.411Z,5.17
2018-05-16T17:40:32.634Z,5.10
2018-05-16T17:43:07.976Z,5.10
2018-05-16T17:45:43.175Z,3.77
2018-05-16T17:48:18.606Z,7.93
2018-05-16T17:50:53.859Z,4.50
2018-05-16T17:53:29.869Z,5.50
2018-05-16T17:56:04.995Z,4.47
2018-05-16T17:58:40.841Z,5.87
2018-05-16T18:01:16.722Z,4.93
2018-05-16T18:03:52.257Z,6.33
2018-05-16T18:06:28.286Z,5.87
2018-05-16T18:09:03.531Z,4.30
2018-05-16T18:11:38.682Z,4.90
2018-05-16T18:14:31.842Z,5.63
2018-05-16T18:17:25.332Z,4.80
2018-05-16T18:20:01.294Z,4.60
2018-05-16T18:22:36.673Z,5.67
2018-05-16T18:25:11.817Z,5.50
2018-05-16T18:27:47.052Z,4.77
2018-05-16T18:30:23.018Z,6.53
2018-05-16T18:32:58.207Z,4.40
2018-05-16T18:35:34.063Z,7.37
2018-05-16T18:38:10.086Z,5.83
2018-05-16T18:40:45.215Z,4.50
2018-05-16T18:43:21.657Z,4.70
2018-05-16T18:45:57.705Z,4.67
2018-05-16T18:48:33.714Z,6.80
2018-05-16T18:51:08.895Z,7.63
2018-05-16T18:53:44.907Z,4.50
2018-05-16T18:56:20.167Z,4.63
2018-05-16T18:58:55.601Z,5.03
2018-05-16T19:01:30.800Z,4.70
2018-05-16T19:04:06.037Z,5.40
2018-05-16T19:06:41.297Z,4.93
2018-05-16T19:09:16.512Z,6.33
2018-05-16T19:11:51.825Z,8.17
2018-05-16T19:14:27.146Z,5.20
2018-05-16T19:17:02.299Z,7.90
2018-05-16T19:19:37.576Z,6.50
2018-05-16T19:22:12.756Z,5.17
2018-05-16T19:24:48.724Z,6.00
2018-05-16T19:27:23.959Z,8.50
2018-05-16T19:29:59.120Z,13.63
2018-05-16T19:32:34.981Z,9.07
2018-05-16T19:35:10.292Z,14.00
2018-05-16T19:37:45.535Z,7.87
2018-05-16T19:40:20.683Z,6.00
2018-05-16T19:42:55.808Z,5.20
2018-05-16T19:45:30.893Z,11.07
2018-05-16T19:48:06.122Z,10.83
2018-05-16T19:50:42.404Z,7.00
2018-05-16T19:53:17.866Z,6.90
2018-05-16T19:55:53.179Z,7.37
2018-05-16T19:58:29.349Z,6.07
2018-05-16T20:01:04.568Z,10.07
2018-05-16T20:03:39.898Z,6.07
2018-05-16T20:06:15.847Z,6.10
2018-05-16T20:08:50.959Z,6.87
2018-05-16T20:11:26.225Z,5.40
2018-05-16T20:14:01.390Z,8.00
2018-05-16T20:16:36.534Z,5.60
2018-05-16T20:19:11.773Z,6.67
2018-05-16T20:21:47.046Z,6.53
2018-05-16T20:24:22.230Z,7.87
2018-05-16T20:26:57.528Z,7.00
2018-05-16T20:29:33.016Z,6.73
2018-05-16T20:32:08.281Z,6.23
2018-05-16T20:34:43.567Z,6.40
2018-05-16T20:37:18.827Z,6.57
2018-05-16T20:39:54.272Z,6.03
2018-05-16T20:42:29.396Z,8.53
2018-05-16T20:45:04.666Z,6.40
2018-05-16T20:47:40.782Z,7.30
2018-05-16T20:50:16.002Z,6.70
2018-05-16T20:52:51.255Z,6.47
2018-05-16T20:55:27.199Z,8.00
2018-05-16T20:58:02.565Z,6.53
2018-05-16T21:00:37.851Z,7.30
2018-05-16T21:03:13.906Z,6.47
2018-05-16T21:05:49.265Z,7.10
2018-05-16T21:08:24.376Z,5.77
2018-05-16T21:10:59.652Z,6.27
2018-05-16T21:13:35.572Z,5.87
2018-05-16T21:16:10.754Z,10.47
2018-05-16T21:18:45.981Z,6.90
2018-05-16T21:21:21.247Z,7.00
2018-05-16T21:23:56.419Z,6.13
2018-05-16T21:26:32.471Z,7.23
2018-05-16T21:29:07.775Z,6.27
2018-05-16T21:31:42.927Z,6.73
2018-05-16T21:34:18.208Z,6.30
2018-05-16T21:36:53.328Z,6.03
2018-05-16T21:39:29.313Z,6.10
2018-05-16T21:42:04.433Z,6.70
2018-05-16T21:44:39.743Z,5.60
2018-05-16T21:47:14.932Z,6.00
2018-05-16T21:49:50.038Z,9.00
2018-05-16T21:52:26.027Z,6.57
2018-05-16T21:55:02.013Z,7.97
2018-05-16T21:57:37.133Z,5.23
2018-05-16T22:00:13.073Z,6.60
2018-05-16T22:02:48.213Z,9.90
2018-05-16T22:05:23.453Z,8.60
2018-05-16T22:07:59.516Z,7.73
2018-05-16T22:10:35.416Z,7.93
2018-05-16T22:13:10.576Z,8.47
2018-05-16T22:15:46.568Z,7.50
2018-05-16T22:18:21.700Z,9.33
2018-05-16T22:20:56.800Z,7.00
2018-05-16T22:23:31.890Z,8.60
2018-05-16T22:26:07.857Z,7.83
2018-05-16T22:28:42.983Z,8.13
2018-05-16T22:31:23.552Z,7.97
2018-05-16T22:34:04.107Z,9.33
2018-05-16T22:36:45.675Z,11.40
2018-05-16T22:39:27.370Z,9.00
2018-05-16T22:42:07.934Z,10.00
2018-05-16T22:44:44.431Z,10.30
2018-05-16T22:47:19.552Z,9.97
2018-05-16T22:49:54.809Z,10.83
2018-05-16T22:52:30.509Z,13.20
2018-05-16T22:55:05.833Z,16.57
2018-05-16T22:57:41.012Z,10.70
2018-05-16T23:00:22.697Z,10.80
2018-05-16T23:02:57.851Z,13.20
2018-05-16T23:05:33.830Z,13.40
2018-05-16T23:08:09.822Z,8.67
2018-05-16T23:10:45.805Z,9.50
2018-05-16T23:13:21.017Z,12.33
2018-05-16T23:15:56.161Z,10.00
2018-05-16T23:18:31.447Z,11.70
2018-05-16T23:21:06.659Z,10.83
2018-05-16T23:23:42.515Z,8.50
2018-05-16T23:26:17.661Z,10.60
2018-05-16T23:28:53.591Z,11.00
2018-05-16T23:31:28.736Z,11.50
2018-05-16T23:34:04.701Z,10.17
2018-05-16T23:36:40.639Z,10.10
2018-05-16T23:39:16.610Z,11.33
2018-05-16T23:41:51.703Z,10.30
2018-05-16T23:44:26.985Z,10.43
2018-05-16T23:47:02.265Z,10.00
2018-05-16T23:49:37.308Z,9.57
2018-05-16T23:52:12.583Z,9.27
2018-05-16T23:54:47.747Z,11.10
2018-05-16T23:57:22.888Z,11.47
2018-05-16T23:59:58.801Z,12.60
